sensor_id;sensor_type;location;lat;lon;timestamp;P1;durP1;ratioP1;P2;durP2;ratioP2
45318;SDS011;31057;48.498;32.260;2023-08-06T00:01:20;19.30;;;17.05;;
45318;SDS011;31057;48.498;32.260;2023-08-06T00:03:24;18.67;;;16.80;;
45318;SDS011;31057;48.498;32.260;2023-08-06T00:05:26;19.45;;;17.50;;
45318;SDS011;31057;48.498;32.260;2023-08-06T00:07:28;20.45;;;18.40;;
45318;SDS011;31057;48.498;32.260;2023-08-06T00:09:30;22.00;;;17.65;;
45318;SDS011;31057;48.498;32.260;2023-08-06T00:11:32;20.30;;;18.30;;
45318;SDS011;31057;48.498;32.260;2023-08-06T00:15:36;21.05;;;18.73;;
45318;SDS011;31057;48.498;32.260;2023-08-06T00:19:40;22.85;;;18.50;;
45318;SDS011;31057;48.498;32.260;2023-08-06T00:23:43;20.50;;;17.95;;
45318;SDS011;31057;48.498;32.260;2023-08-06T00:25:46;20.00;;;17.92;;
45318;SDS011;31057;48.498;32.260;2023-08-06T00:27:47;26.08;;;19.00;;
45318;SDS011;31057;48.498;32.260;2023-08-06T00:31:51;20.85;;;18.35;;
45318;SDS011;31057;48.498;32.260;2023-08-06T00:33:53;22.13;;;19.17;;
45318;SDS011;31057;48.498;32.260;2023-08-06T00:35:55;24.98;;;19.20;;
45318;SDS011;31057;48.498;32.260;2023-08-06T00:39:59;22.75;;;19.45;;
45318;SDS011;31057;48.498;32.260;2023-08-06T00:44:03;25.45;;;19.83;;
45318;SDS011;31057;48.498;32.260;2023-08-06T00:46:05;25.80;;;19.42;;
45318;SDS011;31057;48.498;32.260;2023-08-06T00:48:08;21.58;;;19.42;;
45318;SDS011;31057;48.498;32.260;2023-08-06T00:52:11;19.50;;;17.50;;
45318;SDS011;31057;48.498;32.260;2023-08-06T00:54:15;22.30;;;19.98;;
45318;SDS011;31057;48.498;32.260;2023-08-06T00:56:17;23.63;;;19.83;;
45318;SDS011;31057;48.498;32.260;2023-08-06T00:58:20;22.58;;;19.45;;
45318;SDS011;31057;48.498;32.260;2023-08-06T01:00:24;22.20;;;19.90;;
45318;SDS011;31057;48.498;32.260;2023-08-06T01:02:26;21.45;;;19.25;;
45318;SDS011;31057;48.498;32.260;2023-08-06T01:04:28;20.70;;;18.75;;
45318;SDS011;31057;48.498;32.260;2023-08-06T01:08:56;22.98;;;19.30;;
45318;SDS011;31057;48.498;32.260;2023-08-06T01:15:49;22.77;;;19.75;;
45318;SDS011;31057;48.498;32.260;2023-08-06T01:17:55;21.13;;;19.13;;
45318;SDS011;31057;48.498;32.260;2023-08-06T01:19:57;20.73;;;18.63;;
45318;SDS011;31057;48.498;32.260;2023-08-06T01:24:01;22.75;;;18.55;;
45318;SDS011;31057;48.498;32.260;2023-08-06T01:28:07;19.95;;;17.67;;
45318;SDS011;31057;48.498;32.260;2023-08-06T01:30:19;21.15;;;18.88;;
45318;SDS011;31057;48.498;32.260;2023-08-06T01:32:27;22.00;;;17.63;;
45318;SDS011;31057;48.498;32.260;2023-08-06T01:34:33;22.17;;;17.98;;
45318;SDS011;31057;48.498;32.260;2023-08-06T01:36:36;24.02;;;18.65;;
45318;SDS011;31057;48.498;32.260;2023-08-06T01:38:39;21.80;;;18.50;;
45318;SDS011;31057;48.498;32.260;2023-08-06T01:42:42;19.90;;;17.77;;
45318;SDS011;31057;48.498;32.260;2023-08-06T01:46:46;21.30;;;18.95;;
45318;SDS011;31057;48.498;32.260;2023-08-06T01:50:50;20.13;;;17.98;;
45318;SDS011;31057;48.498;32.260;2023-08-06T01:54:54;21.77;;;19.48;;
45318;SDS011;31057;48.498;32.260;2023-08-06T01:56:56;25.08;;;18.40;;
45318;SDS011;31057;48.498;32.260;2023-08-06T01:58:59;23.85;;;18.25;;
45318;SDS011;31057;48.498;32.260;2023-08-06T02:01:05;23.60;;;18.88;;
45318;SDS011;31057;48.498;32.260;2023-08-06T02:05:09;20.73;;;18.60;;
45318;SDS011;31057;48.498;32.260;2023-08-06T02:07:11;21.00;;;18.27;;
45318;SDS011;31057;48.498;32.260;2023-08-06T02:09:13;21.33;;;19.13;;
45318;SDS011;31057;48.498;32.260;2023-08-06T02:11:15;20.85;;;18.70;;
45318;SDS011;31057;48.498;32.260;2023-08-06T02:15:18;21.55;;;19.25;;
45318;SDS011;31057;48.498;32.260;2023-08-06T02:19:22;23.88;;;19.00;;
45318;SDS011;31057;48.498;32.260;2023-08-06T02:23:27;21.83;;;19.70;;
45318;SDS011;31057;48.498;32.260;2023-08-06T02:25:29;20.90;;;18.92;;
45318;SDS011;31057;48.498;32.260;2023-08-06T02:29:33;21.38;;;19.08;;
45318;SDS011;31057;48.498;32.260;2023-08-06T02:33:37;21.80;;;19.55;;
45318;SDS011;31057;48.498;32.260;2023-08-06T02:37:41;21.70;;;19.13;;
45318;SDS011;31057;48.498;32.260;2023-08-06T02:41:44;21.15;;;16.55;;
45318;SDS011;31057;48.498;32.260;2023-08-06T02:45:48;23.77;;;19.65;;
45318;SDS011;31057;48.498;32.260;2023-08-06T02:47:50;20.20;;;18.05;;
45318;SDS011;31057;48.498;32.260;2023-08-06T02:49:52;21.10;;;18.80;;
45318;SDS011;31057;48.498;32.260;2023-08-06T02:51:54;24.48;;;18.10;;
45318;SDS011;31057;48.498;32.260;2023-08-06T02:55:58;19.67;;;17.60;;
45318;SDS011;31057;48.498;32.260;2023-08-06T03:02:05;18.85;;;16.75;;
45318;SDS011;31057;48.498;32.260;2023-08-06T03:06:09;19.92;;;17.23;;
45318;SDS011;31057;48.498;32.260;2023-08-06T03:10:13;24.08;;;16.95;;
45318;SDS011;31057;48.498;32.260;2023-08-06T03:12:15;20.58;;;17.67;;
45318;SDS011;31057;48.498;32.260;2023-08-06T03:14:17;21.55;;;18.60;;
45318;SDS011;31057;48.498;32.260;2023-08-06T03:18:21;20.70;;;17.67;;
45318;SDS011;31057;48.498;32.260;2023-08-06T03:20:23;22.40;;;18.15;;
45318;SDS011;31057;48.498;32.260;2023-08-06T03:22:26;20.88;;;18.05;;
45318;SDS011;31057;48.498;32.260;2023-08-06T03:26:30;21.35;;;17.35;;
45318;SDS011;31057;48.498;32.260;2023-08-06T03:28:33;19.45;;;17.05;;
45318;SDS011;31057;48.498;32.260;2023-08-06T03:32:37;21.17;;;15.93;;
45318;SDS011;31057;48.498;32.260;2023-08-06T03:34:39;19.92;;;16.45;;
45318;SDS011;31057;48.498;32.260;2023-08-06T03:38:42;20.02;;;15.85;;
45318;SDS011;31057;48.498;32.260;2023-08-06T03:42:47;19.38;;;15.65;;
45318;SDS011;31057;48.498;32.260;2023-08-06T03:44:49;20.33;;;16.23;;
45318;SDS011;31057;48.498;32.260;2023-08-06T03:48:53;20.13;;;15.40;;
45318;SDS011;31057;48.498;32.260;2023-08-06T03:52:57;16.83;;;15.20;;
45318;SDS011;31057;48.498;32.260;2023-08-06T03:57:01;18.10;;;15.32;;
45318;SDS011;31057;48.498;32.260;2023-08-06T03:59:03;18.65;;;14.88;;
45318;SDS011;31057;48.498;32.260;2023-08-06T04:03:07;15.80;;;14.15;;
45318;SDS011;31057;48.498;32.260;2023-08-06T04:05:09;16.70;;;15.18;;
45318;SDS011;31057;48.498;32.260;2023-08-06T04:07:11;18.25;;;14.50;;
45318;SDS011;31057;48.498;32.260;2023-08-06T04:11:15;17.15;;;14.75;;
45318;SDS011;31057;48.498;32.260;2023-08-06T04:15:18;17.98;;;14.20;;
45318;SDS011;31057;48.498;32.260;2023-08-06T04:19:24;15.68;;;13.18;;
45318;SDS011;31057;48.498;32.260;2023-08-06T04:23:28;17.10;;;14.73;;
45318;SDS011;31057;48.498;32.260;2023-08-06T04:25:30;28.95;;;14.15;;
45318;SDS011;31057;48.498;32.260;2023-08-06T04:29:33;17.75;;;13.88;;
45318;SDS011;31057;48.498;32.260;2023-08-06T04:33:37;16.38;;;14.13;;
45318;SDS011;31057;48.498;32.260;2023-08-06T04:35:39;16.13;;;13.48;;
45318;SDS011;31057;48.498;32.260;2023-08-06T04:37:41;14.00;;;12.70;;
45318;SDS011;31057;48.498;32.260;2023-08-06T04:41:45;16.92;;;13.40;;
45318;SDS011;31057;48.498;32.260;2023-08-06T04:43:47;18.85;;;13.73;;
45318;SDS011;31057;48.498;32.260;2023-08-06T04:45:49;16.90;;;12.65;;
45318;SDS011;31057;48.498;32.260;2023-08-06T04:47:52;16.55;;;12.52;;
45318;SDS011;31057;48.498;32.260;2023-08-06T04:49:54;14.85;;;12.85;;
45318;SDS011;31057;48.498;32.260;2023-08-06T04:51:56;16.38;;;12.82;;
45318;SDS011;31057;48.498;32.260;2023-08-06T04:53:58;19.45;;;13.18;;
45318;SDS011;31057;48.498;32.260;2023-08-06T04:56:00;18.13;;;13.88;;
45318;SDS011;31057;48.498;32.260;2023-08-06T04:58:02;19.13;;;14.18;;
45318;SDS011;31057;48.498;32.260;2023-08-06T05:00:05;15.90;;;14.13;;
45318;SDS011;31057;48.498;32.260;2023-08-06T05:02:08;13.55;;;12.25;;
45318;SDS011;31057;48.498;32.260;2023-08-06T05:04:09;14.90;;;13.35;;
45318;SDS011;31057;48.498;32.260;2023-08-06T05:06:12;14.82;;;13.40;;
45318;SDS011;31057;48.498;32.260;2023-08-06T05:08:15;16.98;;;12.25;;
45318;SDS011;31057;48.498;32.260;2023-08-06T05:10:20;14.52;;;13.13;;
45318;SDS011;31057;48.498;32.260;2023-08-06T05:12:22;13.23;;;11.93;;
45318;SDS011;31057;48.498;32.260;2023-08-06T05:14:24;13.40;;;12.02;;
45318;SDS011;31057;48.498;32.260;2023-08-06T05:16:26;13.02;;;11.30;;
45318;SDS011;31057;48.498;32.260;2023-08-06T05:18:28;14.68;;;11.95;;
45318;SDS011;31057;48.498;32.260;2023-08-06T05:20:35;12.68;;;11.48;;
45318;SDS011;31057;48.498;32.260;2023-08-06T05:22:38;18.77;;;11.52;;
45318;SDS011;31057;48.498;32.260;2023-08-06T05:24:40;14.13;;;11.35;;
45318;SDS011;31057;48.498;32.260;2023-08-06T05:26:41;14.93;;;11.75;;
45318;SDS011;31057;48.498;32.260;2023-08-06T05:28:47;16.70;;;11.18;;
45318;SDS011;31057;48.498;32.260;2023-08-06T05:30:49;14.73;;;11.00;;
45318;SDS011;31057;48.498;32.260;2023-08-06T05:32:51;14.20;;;11.30;;
45318;SDS011;31057;48.498;32.260;2023-08-06T05:34:53;14.00;;;11.48;;
45318;SDS011;31057;48.498;32.260;2023-08-06T05:36:55;15.63;;;11.13;;
45318;SDS011;31057;48.498;32.260;2023-08-06T05:38:57;15.18;;;10.45;;
45318;SDS011;31057;48.498;32.260;2023-08-06T05:40:59;14.05;;;10.88;;
45318;SDS011;31057;48.498;32.260;2023-08-06T05:43:02;18.30;;;10.95;;
45318;SDS011;31057;48.498;32.260;2023-08-06T05:45:04;12.35;;;10.27;;
45318;SDS011;31057;48.498;32.260;2023-08-06T05:47:06;11.77;;;10.55;;
45318;SDS011;31057;48.498;32.260;2023-08-06T05:49:09;12.65;;;11.25;;
45318;SDS011;31057;48.498;32.260;2023-08-06T05:51:11;16.02;;;11.27;;
45318;SDS011;31057;48.498;32.260;2023-08-06T05:53:14;14.05;;;11.85;;
45318;SDS011;31057;48.498;32.260;2023-08-06T05:55:16;13.10;;;10.70;;
45318;SDS011;31057;48.498;32.260;2023-08-06T05:57:18;12.98;;;10.73;;
45318;SDS011;31057;48.498;32.260;2023-08-06T05:59:20;11.38;;;10.27;;
45318;SDS011;31057;48.498;32.260;2023-08-06T06:01:22;13.50;;;10.98;;
45318;SDS011;31057;48.498;32.260;2023-08-06T06:03:24;10.55;;;9.45;;
45318;SDS011;31057;48.498;32.260;2023-08-06T06:05:26;13.00;;;10.18;;
45318;SDS011;31057;48.498;32.260;2023-08-06T06:07:28;13.73;;;10.38;;
45318;SDS011;31057;48.498;32.260;2023-08-06T06:09:30;15.25;;;11.15;;
45318;SDS011;31057;48.498;32.260;2023-08-06T06:11:32;15.13;;;12.75;;
45318;SDS011;31057;48.498;32.260;2023-08-06T06:13:34;16.80;;;11.38;;
45318;SDS011;31057;48.498;32.260;2023-08-06T06:15:36;12.40;;;10.05;;
45318;SDS011;31057;48.498;32.260;2023-08-06T06:17:39;13.80;;;9.82;;
45318;SDS011;31057;48.498;32.260;2023-08-06T06:19:41;16.15;;;10.18;;
45318;SDS011;31057;48.498;32.260;2023-08-06T06:21:44;12.85;;;10.60;;
45318;SDS011;31057;48.498;32.260;2023-08-06T06:23:46;12.65;;;10.75;;
45318;SDS011;31057;48.498;32.260;2023-08-06T06:25:48;12.55;;;9.93;;
45318;SDS011;31057;48.498;32.260;2023-08-06T06:27:53;15.88;;;9.77;;
45318;SDS011;31057;48.498;32.260;2023-08-06T06:29:54;11.65;;;10.15;;
45318;SDS011;31057;48.498;32.260;2023-08-06T06:31:57;12.02;;;9.88;;
45318;SDS011;31057;48.498;32.260;2023-08-06T06:33:59;16.63;;;10.48;;
45318;SDS011;31057;48.498;32.260;2023-08-06T06:36:01;10.40;;;9.32;;
45318;SDS011;31057;48.498;32.260;2023-08-06T06:38:04;16.52;;;10.27;;
45318;SDS011;31057;48.498;32.260;2023-08-06T06:40:07;13.98;;;10.18;;
45318;SDS011;31057;48.498;32.260;2023-08-06T06:42:09;14.85;;;12.35;;
45318;SDS011;31057;48.498;32.260;2023-08-06T06:44:11;13.98;;;11.63;;
45318;SDS011;31057;48.498;32.260;2023-08-06T06:46:14;11.25;;;10.05;;
45318;SDS011;31057;48.498;32.260;2023-08-06T06:48:16;15.70;;;11.65;;
45318;SDS011;31057;48.498;32.260;2023-08-06T06:50:18;14.13;;;11.50;;
45318;SDS011;31057;48.498;32.260;2023-08-06T06:52:20;14.38;;;10.52;;
45318;SDS011;31057;48.498;32.260;2023-08-06T06:54:25;11.60;;;10.45;;
45318;SDS011;31057;48.498;32.260;2023-08-06T06:56:26;12.48;;;9.40;;
45318;SDS011;31057;48.498;32.260;2023-08-06T06:58:29;14.43;;;10.40;;
45318;SDS011;31057;48.498;32.260;2023-08-06T07:00:31;13.05;;;9.98;;
45318;SDS011;31057;48.498;32.260;2023-08-06T07:02:33;13.20;;;10.68;;
45318;SDS011;31057;48.498;32.260;2023-08-06T07:04:35;14.80;;;9.70;;
45318;SDS011;31057;48.498;32.260;2023-08-06T07:06:37;14.40;;;9.15;;
45318;SDS011;31057;48.498;32.260;2023-08-06T07:08:39;14.80;;;10.48;;
45318;SDS011;31057;48.498;32.260;2023-08-06T07:10:41;17.35;;;9.75;;
45318;SDS011;31057;48.498;32.260;2023-08-06T07:12:44;16.42;;;9.98;;
45318;SDS011;31057;48.498;32.260;2023-08-06T07:14:46;12.95;;;9.80;;
45318;SDS011;31057;48.498;32.260;2023-08-06T07:16:48;12.93;;;9.57;;
45318;SDS011;31057;48.498;32.260;2023-08-06T07:18:51;15.63;;;9.13;;
45318;SDS011;31057;48.498;32.260;2023-08-06T07:20:56;13.23;;;10.13;;
45318;SDS011;31057;48.498;32.260;2023-08-06T07:22:58;14.23;;;9.50;;
45318;SDS011;31057;48.498;32.260;2023-08-06T07:25:00;12.82;;;8.98;;
45318;SDS011;31057;48.498;32.260;2023-08-06T07:27:02;14.32;;;8.40;;
45318;SDS011;31057;48.498;32.260;2023-08-06T07:29:04;10.57;;;8.63;;
45318;SDS011;31057;48.498;32.260;2023-08-06T07:31:06;16.13;;;8.38;;
45318;SDS011;31057;48.498;32.260;2023-08-06T07:33:09;12.70;;;8.38;;
45318;SDS011;31057;48.498;32.260;2023-08-06T07:35:11;16.65;;;8.90;;
45318;SDS011;31057;48.498;32.260;2023-08-06T07:37:16;15.77;;;8.77;;
45318;SDS011;31057;48.498;32.260;2023-08-06T07:39:18;15.52;;;8.18;;
45318;SDS011;31057;48.498;32.260;2023-08-06T07:41:20;14.52;;;8.35;;
45318;SDS011;31057;48.498;32.260;2023-08-06T07:43:22;14.90;;;8.50;;
45318;SDS011;31057;48.498;32.260;2023-08-06T07:45:24;11.68;;;8.15;;
45318;SDS011;31057;48.498;32.260;2023-08-06T07:47:28;15.32;;;9.25;;
45318;SDS011;31057;48.498;32.260;2023-08-06T07:49:30;15.85;;;8.85;;
45318;SDS011;31057;48.498;32.260;2023-08-06T07:51:32;16.48;;;8.82;;
45318;SDS011;31057;48.498;32.260;2023-08-06T07:53:34;17.10;;;8.43;;
45318;SDS011;31057;48.498;32.260;2023-08-06T07:55:36;14.35;;;7.90;;
45318;SDS011;31057;48.498;32.260;2023-08-06T07:57:38;16.17;;;7.93;;
45318;SDS011;31057;48.498;32.260;2023-08-06T07:59:40;17.02;;;8.60;;
45318;SDS011;31057;48.498;32.260;2023-08-06T08:01:41;14.85;;;7.22;;
45318;SDS011;31057;48.498;32.260;2023-08-06T08:03:43;12.85;;;7.85;;
45318;SDS011;31057;48.498;32.260;2023-08-06T08:05:45;9.75;;;7.22;;
45318;SDS011;31057;48.498;32.260;2023-08-06T08:07:47;12.82;;;7.82;;
45318;SDS011;31057;48.498;32.260;2023-08-06T08:09:49;14.18;;;8.07;;
45318;SDS011;31057;48.498;32.260;2023-08-06T08:11:52;12.40;;;7.20;;
45318;SDS011;31057;48.498;32.260;2023-08-06T08:13:54;13.52;;;6.70;;
45318;SDS011;31057;48.498;32.260;2023-08-06T08:15:59;12.43;;;6.82;;
45318;SDS011;31057;48.498;32.260;2023-08-06T08:18:02;12.15;;;7.38;;
45318;SDS011;31057;48.498;32.260;2023-08-06T08:20:04;13.57;;;6.85;;
45318;SDS011;31057;48.498;32.260;2023-08-06T08:22:07;15.10;;;6.88;;
45318;SDS011;31057;48.498;32.260;2023-08-06T08:24:09;17.25;;;7.60;;
45318;SDS011;31057;48.498;32.260;2023-08-06T08:26:11;12.82;;;6.78;;
45318;SDS011;31057;48.498;32.260;2023-08-06T08:28:13;12.65;;;7.03;;
45318;SDS011;31057;48.498;32.260;2023-08-06T08:30:15;16.38;;;7.63;;
45318;SDS011;31057;48.498;32.260;2023-08-06T08:32:17;14.88;;;6.65;;
45318;SDS011;31057;48.498;32.260;2023-08-06T08:34:19;14.07;;;6.22;;
45318;SDS011;31057;48.498;32.260;2023-08-06T08:36:21;20.45;;;7.05;;
45318;SDS011;31057;48.498;32.260;2023-08-06T08:38:23;12.07;;;6.45;;
45318;SDS011;31057;48.498;32.260;2023-08-06T08:40:27;17.98;;;6.50;;
45318;SDS011;31057;48.498;32.260;2023-08-06T08:42:34;18.58;;;5.97;;
45318;SDS011;31057;48.498;32.260;2023-08-06T08:44:37;14.25;;;5.57;;
45318;SDS011;31057;48.498;32.260;2023-08-06T08:46:42;21.25;;;5.75;;
45318;SDS011;31057;48.498;32.260;2023-08-06T08:48:45;30.48;;;6.07;;
45318;SDS011;31057;48.498;32.260;2023-08-06T08:50:48;26.58;;;5.57;;
45318;SDS011;31057;48.498;32.260;2023-08-06T08:52:51;16.60;;;5.28;;
45318;SDS011;31057;48.498;32.260;2023-08-06T08:54:53;12.05;;;4.50;;
45318;SDS011;31057;48.498;32.260;2023-08-06T08:56:56;26.60;;;5.65;;
45318;SDS011;31057;48.498;32.260;2023-08-06T08:58:58;26.63;;;5.25;;
45318;SDS011;31057;48.498;32.260;2023-08-06T09:01:00;22.33;;;5.03;;
45318;SDS011;31057;48.498;32.260;2023-08-06T09:03:05;26.98;;;5.65;;
45318;SDS011;31057;48.498;32.260;2023-08-06T09:05:08;15.40;;;4.35;;
45318;SDS011;31057;48.498;32.260;2023-08-06T09:07:13;17.73;;;5.03;;
45318;SDS011;31057;48.498;32.260;2023-08-06T09:09:22;21.92;;;5.20;;
45318;SDS011;31057;48.498;32.260;2023-08-06T09:11:47;20.05;;;5.00;;
45318;SDS011;31057;48.498;32.260;2023-08-06T09:13:50;39.15;;;5.32;;
45318;SDS011;31057;48.498;32.260;2023-08-06T09:15:53;15.27;;;4.65;;
45318;SDS011;31057;48.498;32.260;2023-08-06T09:17:55;9.95;;;4.30;;
45318;SDS011;31057;48.498;32.260;2023-08-06T09:19:57;13.80;;;4.40;;
45318;SDS011;31057;48.498;32.260;2023-08-06T09:22:00;21.23;;;5.28;;
45318;SDS011;31057;48.498;32.260;2023-08-06T09:24:10;19.83;;;4.93;;
45318;SDS011;31057;48.498;32.260;2023-08-06T09:26:13;27.85;;;5.00;;
45318;SDS011;31057;48.498;32.260;2023-08-06T09:28:17;14.32;;;4.45;;
45318;SDS011;31057;48.498;32.260;2023-08-06T09:30:35;11.25;;;4.35;;
45318;SDS011;31057;48.498;32.260;2023-08-06T09:32:47;12.18;;;4.60;;
45318;SDS011;31057;48.498;32.260;2023-08-06T09:34:55;19.95;;;4.93;;
45318;SDS011;31057;48.498;32.260;2023-08-06T09:36:58;11.23;;;3.92;;
45318;SDS011;31057;48.498;32.260;2023-08-06T09:39:00;13.50;;;4.70;;
45318;SDS011;31057;48.498;32.260;2023-08-06T09:41:01;9.48;;;4.20;;
45318;SDS011;31057;48.498;32.260;2023-08-06T09:43:03;13.65;;;4.72;;
45318;SDS011;31057;48.498;32.260;2023-08-06T09:45:07;30.65;;;6.18;;
45318;SDS011;31057;48.498;32.260;2023-08-06T09:47:09;20.65;;;4.47;;
45318;SDS011;31057;48.498;32.260;2023-08-06T09:49:11;15.52;;;4.30;;
45318;SDS011;31057;48.498;32.260;2023-08-06T09:51:13;11.82;;;4.65;;
45318;SDS011;31057;48.498;32.260;2023-08-06T09:53:15;17.33;;;5.05;;
45318;SDS011;31057;48.498;32.260;2023-08-06T09:55:18;21.48;;;5.57;;
45318;SDS011;31057;48.498;32.260;2023-08-06T09:57:23;31.42;;;6.22;;
45318;SDS011;31057;48.498;32.260;2023-08-06T09:59:27;31.52;;;6.80;;
45318;SDS011;31057;48.498;32.260;2023-08-06T10:01:29;16.85;;;5.22;;
45318;SDS011;31057;48.498;32.260;2023-08-06T10:03:33;19.17;;;4.82;;
45318;SDS011;31057;48.498;32.260;2023-08-06T10:05:36;16.88;;;5.70;;
45318;SDS011;31057;48.498;32.260;2023-08-06T10:07:39;49.15;;;8.02;;
45318;SDS011;31057;48.498;32.260;2023-08-06T10:09:46;16.30;;;6.25;;
45318;SDS011;31057;48.498;32.260;2023-08-06T10:11:49;13.50;;;5.28;;
45318;SDS011;31057;48.498;32.260;2023-08-06T10:14:00;19.77;;;6.15;;
45318;SDS011;31057;48.498;32.260;2023-08-06T10:16:22;18.42;;;5.40;;
45318;SDS011;31057;48.498;32.260;2023-08-06T10:18:25;15.70;;;4.85;;
45318;SDS011;31057;48.498;32.260;2023-08-06T10:20:31;14.57;;;5.35;;
45318;SDS011;31057;48.498;32.260;2023-08-06T10:22:35;9.93;;;4.95;;
45318;SDS011;31057;48.498;32.260;2023-08-06T10:24:50;24.83;;;5.75;;
45318;SDS011;31057;48.498;32.260;2023-08-06T10:26:56;22.95;;;6.60;;
45318;SDS011;31057;48.498;32.260;2023-08-06T10:29:00;20.05;;;6.15;;
45318;SDS011;31057;48.498;32.260;2023-08-06T10:31:02;29.92;;;6.97;;
45318;SDS011;31057;48.498;32.260;2023-08-06T10:33:06;23.55;;;5.93;;
45318;SDS011;31057;48.498;32.260;2023-08-06T10:35:09;15.35;;;5.60;;
45318;SDS011;31057;48.498;32.260;2023-08-06T10:37:35;26.92;;;6.45;;
45318;SDS011;31057;48.498;32.260;2023-08-06T10:39:42;21.73;;;7.30;;
45318;SDS011;31057;48.498;32.260;2023-08-06T10:41:53;22.33;;;5.38;;
45318;SDS011;31057;48.498;32.260;2023-08-06T10:44:05;49.80;;;7.57;;
45318;SDS011;31057;48.498;32.260;2023-08-06T10:46:11;30.58;;;6.47;;
45318;SDS011;31057;48.498;32.260;2023-08-06T10:48:40;24.15;;;6.22;;
45318;SDS011;31057;48.498;32.260;2023-08-06T10:50:43;20.58;;;5.82;;
45318;SDS011;31057;48.498;32.260;2023-08-06T10:52:45;18.30;;;6.13;;
45318;SDS011;31057;48.498;32.260;2023-08-06T10:54:49;21.90;;;6.45;;
45318;SDS011;31057;48.498;32.260;2023-08-06T10:56:51;31.42;;;7.60;;
45318;SDS011;31057;48.498;32.260;2023-08-06T10:58:54;23.52;;;6.45;;
45318;SDS011;31057;48.498;32.260;2023-08-06T11:01:00;34.60;;;7.15;;
45318;SDS011;31057;48.498;32.260;2023-08-06T11:03:03;36.13;;;6.65;;
45318;SDS011;31057;48.498;32.260;2023-08-06T11:05:06;26.38;;;6.80;;
45318;SDS011;31057;48.498;32.260;2023-08-06T11:07:13;23.73;;;5.90;;
45318;SDS011;31057;48.498;32.260;2023-08-06T11:09:18;37.42;;;6.28;;
45318;SDS011;31057;48.498;32.260;2023-08-06T11:11:21;19.85;;;5.93;;
45318;SDS011;31057;48.498;32.260;2023-08-06T11:13:24;42.17;;;8.35;;
45318;SDS011;31057;48.498;32.260;2023-08-06T11:15:28;35.10;;;7.63;;
45318;SDS011;31057;48.498;32.260;2023-08-06T11:17:32;26.17;;;7.65;;
45318;SDS011;31057;48.498;32.260;2023-08-06T11:19:35;28.48;;;6.78;;
45318;SDS011;31057;48.498;32.260;2023-08-06T11:21:39;30.88;;;7.00;;
45318;SDS011;31057;48.498;32.260;2023-08-06T11:23:41;37.42;;;8.25;;
45318;SDS011;31057;48.498;32.260;2023-08-06T11:25:46;57.17;;;7.95;;
45318;SDS011;31057;48.498;32.260;2023-08-06T11:27:48;34.38;;;6.50;;
45318;SDS011;31057;48.498;32.260;2023-08-06T11:29:50;26.33;;;6.78;;
45318;SDS011;31057;48.498;32.260;2023-08-06T11:31:52;35.10;;;7.10;;
45318;SDS011;31057;48.498;32.260;2023-08-06T11:33:55;39.15;;;6.07;;
45318;SDS011;31057;48.498;32.260;2023-08-06T11:35:58;46.70;;;7.82;;
45318;SDS011;31057;48.498;32.260;2023-08-06T11:38:01;43.28;;;8.30;;
45318;SDS011;31057;48.498;32.260;2023-08-06T11:40:05;46.00;;;7.15;;
45318;SDS011;31057;48.498;32.260;2023-08-06T11:42:10;39.80;;;7.32;;
45318;SDS011;31057;48.498;32.260;2023-08-06T11:44:13;56.67;;;10.07;;
45318;SDS011;31057;48.498;32.260;2023-08-06T11:46:18;42.17;;;8.48;;
45318;SDS011;31057;48.498;32.260;2023-08-06T11:48:20;35.88;;;8.32;;
45318;SDS011;31057;48.498;32.260;2023-08-06T11:50:25;51.20;;;8.85;;
45318;SDS011;31057;48.498;32.260;2023-08-06T11:52:28;47.95;;;7.15;;
45318;SDS011;31057;48.498;32.260;2023-08-06T11:54:31;44.28;;;8.82;;
45318;SDS011;31057;48.498;32.260;2023-08-06T11:56:35;48.05;;;9.07;;
45318;SDS011;31057;48.498;32.260;2023-08-06T11:58:37;53.70;;;10.02;;
45318;SDS011;31057;48.498;32.260;2023-08-06T12:00:39;48.80;;;9.02;;
45318;SDS011;31057;48.498;32.260;2023-08-06T12:02:41;45.67;;;7.75;;
45318;SDS011;31057;48.498;32.260;2023-08-06T12:04:59;43.35;;;7.53;;
45318;SDS011;31057;48.498;32.260;2023-08-06T12:07:10;55.38;;;8.60;;
45318;SDS011;31057;48.498;32.260;2023-08-06T12:09:12;39.20;;;7.97;;
45318;SDS011;31057;48.498;32.260;2023-08-06T12:11:16;42.90;;;8.32;;
45318;SDS011;31057;48.498;32.260;2023-08-06T12:13:18;51.97;;;9.25;;
45318;SDS011;31057;48.498;32.260;2023-08-06T12:15:21;45.95;;;8.35;;
45318;SDS011;31057;48.498;32.260;2023-08-06T12:17:24;39.20;;;9.35;;
45318;SDS011;31057;48.498;32.260;2023-08-06T12:19:27;46.45;;;11.30;;
45318;SDS011;31057;48.498;32.260;2023-08-06T12:21:29;43.17;;;12.85;;
45318;SDS011;31057;48.498;32.260;2023-08-06T12:23:31;51.28;;;12.40;;
45318;SDS011;31057;48.498;32.260;2023-08-06T12:25:34;43.67;;;13.18;;
45318;SDS011;31057;48.498;32.260;2023-08-06T12:27:46;43.78;;;10.90;;
45318;SDS011;31057;48.498;32.260;2023-08-06T12:29:48;38.85;;;10.32;;
45318;SDS011;31057;48.498;32.260;2023-08-06T12:31:50;44.20;;;10.32;;
45318;SDS011;31057;48.498;32.260;2023-08-06T12:33:53;57.15;;;11.20;;
45318;SDS011;31057;48.498;32.260;2023-08-06T12:35:55;47.60;;;11.18;;
45318;SDS011;31057;48.498;32.260;2023-08-06T12:37:58;45.35;;;10.93;;
45318;SDS011;31057;48.498;32.260;2023-08-06T12:40:00;40.88;;;12.32;;
45318;SDS011;31057;48.498;32.260;2023-08-06T12:42:23;31.92;;;10.55;;
45318;SDS011;31057;48.498;32.260;2023-08-06T12:44:25;49.67;;;12.57;;
45318;SDS011;31057;48.498;32.260;2023-08-06T12:46:28;37.85;;;8.93;;
45318;SDS011;31057;48.498;32.260;2023-08-06T12:48:33;26.08;;;8.00;;
45318;SDS011;31057;48.498;32.260;2023-08-06T12:50:35;19.52;;;8.25;;
45318;SDS011;31057;48.498;32.260;2023-08-06T12:52:37;26.85;;;8.80;;
45318;SDS011;31057;48.498;32.260;2023-08-06T12:54:39;24.08;;;8.50;;
45318;SDS011;31057;48.498;32.260;2023-08-06T12:56:41;24.42;;;8.18;;
45318;SDS011;31057;48.498;32.260;2023-08-06T12:58:43;48.88;;;11.07;;
45318;SDS011;31057;48.498;32.260;2023-08-06T13:00:45;42.47;;;9.65;;
45318;SDS011;31057;48.498;32.260;2023-08-06T13:02:47;29.20;;;8.68;;
45318;SDS011;31057;48.498;32.260;2023-08-06T13:04:50;31.45;;;8.02;;
45318;SDS011;31057;48.498;32.260;2023-08-06T13:06:52;32.30;;;7.40;;
45318;SDS011;31057;48.498;32.260;2023-08-06T13:08:54;30.70;;;8.20;;
45318;SDS011;31057;48.498;32.260;2023-08-06T13:10:56;29.55;;;8.65;;
45318;SDS011;31057;48.498;32.260;2023-08-06T13:12:58;35.42;;;9.15;;
45318;SDS011;31057;48.498;32.260;2023-08-06T13:15:00;33.22;;;9.20;;
45318;SDS011;31057;48.498;32.260;2023-08-06T13:17:02;36.80;;;10.38;;
45318;SDS011;31057;48.498;32.260;2023-08-06T13:19:08;37.70;;;10.93;;
45318;SDS011;31057;48.498;32.260;2023-08-06T13:21:10;33.95;;;9.25;;
45318;SDS011;31057;48.498;32.260;2023-08-06T13:23:12;31.65;;;9.00;;
45318;SDS011;31057;48.498;32.260;2023-08-06T13:25:17;24.67;;;8.77;;
45318;SDS011;31057;48.498;32.260;2023-08-06T13:27:19;36.58;;;6.60;;
45318;SDS011;31057;48.498;32.260;2023-08-06T13:29:22;40.22;;;7.35;;
45318;SDS011;31057;48.498;32.260;2023-08-06T13:31:24;28.30;;;6.60;;